sensor_id;sensor_type;location;lat;lon;timestamp;P1;durP1;ratioP1;P2;durP2;ratioP2
12721;SDS011;6425;50.316;8.114;2022-10-26T00:02:11;12.87;;;4.27;;
12721;SDS011;6425;50.316;8.114;2022-10-26T00:07:13;13.53;;;5.87;;
12721;SDS011;6425;50.316;8.114;2022-10-26T00:12:14;9.07;;;4.73;;
12721;SDS011;6425;50.316;8.114;2022-10-26T00:17:14;8.77;;;6.00;;
12721;SDS011;6425;50.316;8.114;2022-10-26T00:22:16;18.80;;;5.50;;
12721;SDS011;6425;50.316;8.114;2022-10-26T00:27:17;10.97;;;5.43;;
12721;SDS011;6425;50.316;8.114;2022-10-26T00:32:17;10.03;;;5.43;;
12721;SDS011;6425;50.316;8.114;2022-10-26T00:37:19;15.87;;;5.93;;
12721;SDS011;6425;50.316;8.114;2022-10-26T00:42:21;11.67;;;4.57;;
12721;SDS011;6425;50.316;8.114;2022-10-26T00:47:23;12.33;;;4.97;;
12721;SDS011;6425;50.316;8.114;2022-10-26T00:52:29;19.70;;;6.07;;
12721;SDS011;6425;50.316;8.114;2022-10-26T00:57:30;14.93;;;7.20;;
12721;SDS011;6425;50.316;8.114;2022-10-26T01:02:30;15.90;;;8.77;;
12721;SDS011;6425;50.316;8.114;2022-10-26T01:07:32;18.43;;;9.53;;
12721;SDS011;6425;50.316;8.114;2022-10-26T01:12:34;20.93;;;9.33;;
12721;SDS011;6425;50.316;8.114;2022-10-26T01:17:38;16.13;;;9.13;;
12721;SDS011;6425;50.316;8.114;2022-10-26T01:22:56;19.07;;;8.80;;
12721;SDS011;6425;50.316;8.114;2022-10-26T01:28:03;20.23;;;8.53;;
12721;SDS011;6425;50.316;8.114;2022-10-26T01:33:19;14.93;;;8.73;;
12721;SDS011;6425;50.316;8.114;2022-10-26T01:38:30;13.63;;;8.43;;
12721;SDS011;6425;50.316;8.114;2022-10-26T01:43:34;15.60;;;8.57;;
12721;SDS011;6425;50.316;8.114;2022-10-26T01:48:41;13.43;;;8.20;;
12721;SDS011;6425;50.316;8.114;2022-10-26T01:53:43;17.83;;;8.97;;
12721;SDS011;6425;50.316;8.114;2022-10-26T01:59:00;14.60;;;8.67;;
12721;SDS011;6425;50.316;8.114;2022-10-26T02:04:15;14.33;;;8.60;;
12721;SDS011;6425;50.316;8.114;2022-10-26T02:09:28;18.73;;;9.53;;
12721;SDS011;6425;50.316;8.114;2022-10-26T02:14:40;16.97;;;9.83;;
12721;SDS011;6425;50.316;8.114;2022-10-26T02:19:48;20.93;;;10.40;;
12721;SDS011;6425;50.316;8.114;2022-10-26T02:24:52;18.77;;;10.40;;
12721;SDS011;6425;50.316;8.114;2022-10-26T02:29:53;17.53;;;9.67;;
12721;SDS011;6425;50.316;8.114;2022-10-26T02:34:57;19.60;;;10.70;;
12721;SDS011;6425;50.316;8.114;2022-10-26T02:40:02;20.00;;;9.80;;
12721;SDS011;6425;50.316;8.114;2022-10-26T02:45:11;22.33;;;9.83;;
12721;SDS011;6425;50.316;8.114;2022-10-26T02:50:17;16.73;;;9.70;;
12721;SDS011;6425;50.316;8.114;2022-10-26T02:55:21;15.40;;;8.40;;
12721;SDS011;6425;50.316;8.114;2022-10-26T03:00:29;12.53;;;8.10;;
12721;SDS011;6425;50.316;8.114;2022-10-26T03:05:40;15.80;;;8.90;;
12721;SDS011;6425;50.316;8.114;2022-10-26T03:10:44;12.77;;;8.37;;
12721;SDS011;6425;50.316;8.114;2022-10-26T03:15:48;17.20;;;9.07;;
12721;SDS011;6425;50.316;8.114;2022-10-26T03:20:50;17.93;;;9.33;;
12721;SDS011;6425;50.316;8.114;2022-10-26T03:26:09;14.37;;;8.70;;
12721;SDS011;6425;50.316;8.114;2022-10-26T03:31:15;19.13;;;10.10;;
12721;SDS011;6425;50.316;8.114;2022-10-26T03:36:29;15.53;;;8.93;;
12721;SDS011;6425;50.316;8.114;2022-10-26T03:41:32;14.40;;;9.80;;
12721;SDS011;6425;50.316;8.114;2022-10-26T03:46:33;15.87;;;9.57;;
12721;SDS011;6425;50.316;8.114;2022-10-26T03:51:36;17.13;;;10.20;;
12721;SDS011;6425;50.316;8.114;2022-10-26T03:56:37;12.20;;;8.90;;
12721;SDS011;6425;50.316;8.114;2022-10-26T04:01:38;16.47;;;10.77;;
12721;SDS011;6425;50.316;8.114;2022-10-26T04:06:40;16.30;;;8.80;;
12721;SDS011;6425;50.316;8.114;2022-10-26T04:11:40;17.53;;;9.60;;
12721;SDS011;6425;50.316;8.114;2022-10-26T04:16:41;15.90;;;9.73;;
12721;SDS011;6425;50.316;8.114;2022-10-26T04:21:45;21.97;;;9.47;;
12721;SDS011;6425;50.316;8.114;2022-10-26T04:26:54;18.50;;;9.50;;
12721;SDS011;6425;50.316;8.114;2022-10-26T04:32:05;17.97;;;10.40;;
12721;SDS011;6425;50.316;8.114;2022-10-26T04:37:13;19.93;;;10.07;;
12721;SDS011;6425;50.316;8.114;2022-10-26T04:42:17;15.73;;;8.83;;
12721;SDS011;6425;50.316;8.114;2022-10-26T04:47:20;16.07;;;10.20;;
12721;SDS011;6425;50.316;8.114;2022-10-26T04:52:28;21.70;;;9.53;;
12721;SDS011;6425;50.316;8.114;2022-10-26T04:57:32;19.63;;;10.80;;
12721;SDS011;6425;50.316;8.114;2022-10-26T05:02:37;13.60;;;9.20;;
12721;SDS011;6425;50.316;8.114;2022-10-26T05:07:43;14.97;;;9.63;;
12721;SDS011;6425;50.316;8.114;2022-10-26T05:12:49;20.33;;;11.40;;
12721;SDS011;6425;50.316;8.114;2022-10-26T05:18:00;18.17;;;10.73;;
12721;SDS011;6425;50.316;8.114;2022-10-26T05:23:04;21.57;;;14.23;;
12721;SDS011;6425;50.316;8.114;2022-10-26T05:28:09;24.27;;;10.83;;
12721;SDS011;6425;50.316;8.114;2022-10-26T05:33:12;21.97;;;11.00;;
12721;SDS011;6425;50.316;8.114;2022-10-26T05:38:20;16.73;;;12.57;;
12721;SDS011;6425;50.316;8.114;2022-10-26T05:43:22;25.70;;;12.87;;
12721;SDS011;6425;50.316;8.114;2022-10-26T05:48:26;16.67;;;11.63;;
12721;SDS011;6425;50.316;8.114;2022-10-26T05:53:30;19.47;;;10.70;;
12721;SDS011;6425;50.316;8.114;2022-10-26T05:58:31;17.37;;;11.00;;
12721;SDS011;6425;50.316;8.114;2022-10-26T06:03:35;17.90;;;10.50;;
12721;SDS011;6425;50.316;8.114;2022-10-26T06:08:50;16.90;;;10.53;;
12721;SDS011;6425;50.316;8.114;2022-10-26T06:13:52;18.63;;;10.83;;
12721;SDS011;6425;50.316;8.114;2022-10-26T06:19:00;16.07;;;10.70;;
12721;SDS011;6425;50.316;8.114;2022-10-26T06:24:19;22.27;;;12.77;;
12721;SDS011;6425;50.316;8.114;2022-10-26T06:29:27;27.17;;;12.57;;
12721;SDS011;6425;50.316;8.114;2022-10-26T06:34:35;22.00;;;13.30;;
12721;SDS011;6425;50.316;8.114;2022-10-26T06:39:44;18.27;;;11.17;;
12721;SDS011;6425;50.316;8.114;2022-10-26T06:44:48;17.20;;;9.63;;
12721;SDS011;6425;50.316;8.114;2022-10-26T06:50:03;17.00;;;9.30;;
12721;SDS011;6425;50.316;8.114;2022-10-26T06:55:51;17.67;;;9.90;;
12721;SDS011;6425;50.316;8.114;2022-10-26T07:01:44;18.60;;;9.90;;
12721;SDS011;6425;50.316;8.114;2022-10-26T07:06:45;19.93;;;10.33;;
12721;SDS011;6425;50.316;8.114;2022-10-26T07:11:52;17.53;;;9.97;;
12721;SDS011;6425;50.316;8.114;2022-10-26T07:16:55;13.13;;;10.20;;
12721;SDS011;6425;50.316;8.114;2022-10-26T07:22:20;25.23;;;17.23;;
12721;SDS011;6425;50.316;8.114;2022-10-26T07:27:27;27.37;;;17.10;;
12721;SDS011;6425;50.316;8.114;2022-10-26T07:32:38;22.93;;;15.13;;
12721;SDS011;6425;50.316;8.114;2022-10-26T07:37:58;22.10;;;14.43;;
12721;SDS011;6425;50.316;8.114;2022-10-26T07:43:43;17.47;;;11.80;;
12721;SDS011;6425;50.316;8.114;2022-10-26T07:48:54;20.07;;;10.77;;
12721;SDS011;6425;50.316;8.114;2022-10-26T08:05:54;9.83;;;8.67;;
12721;SDS011;6425;50.316;8.114;2022-10-26T08:11:03;16.43;;;9.30;;
12721;SDS011;6425;50.316;8.114;2022-10-26T08:45:35;19.43;;;8.63;;
12721;SDS011;6425;50.316;8.114;2022-10-26T08:57:26;15.30;;;8.70;;
12721;SDS011;6425;50.316;8.114;2022-10-26T09:02:33;15.47;;;9.07;;
12721;SDS011;6425;50.316;8.114;2022-10-26T09:07:36;15.83;;;9.50;;
12721;SDS011;6425;50.316;8.114;2022-10-26T09:12:46;16.17;;;9.60;;
12721;SDS011;6425;50.316;8.114;2022-10-26T09:17:57;14.77;;;8.30;;
12721;SDS011;6425;50.316;8.114;2022-10-26T09:23:15;13.67;;;7.70;;
12721;SDS011;6425;50.316;8.114;2022-10-26T09:28:27;13.57;;;6.40;;
12721;SDS011;6425;50.316;8.114;2022-10-26T09:33:35;10.87;;;6.10;;
12721;SDS011;6425;50.316;8.114;2022-10-26T09:38:39;12.93;;;7.43;;
12721;SDS011;6425;50.316;8.114;2022-10-26T09:43:43;12.33;;;7.53;;
12721;SDS011;6425;50.316;8.114;2022-10-26T09:48:50;16.07;;;7.13;;
12721;SDS011;6425;50.316;8.114;2022-10-26T09:53:55;11.97;;;6.17;;
12721;SDS011;6425;50.316;8.114;2022-10-26T09:58:59;16.07;;;6.03;;
12721;SDS011;6425;50.316;8.114;2022-10-26T10:09:21;9.40;;;6.60;;
12721;SDS011;6425;50.316;8.114;2022-10-26T10:14:23;10.40;;;6.50;;
12721;SDS011;6425;50.316;8.114;2022-10-26T10:19:27;12.77;;;6.50;;
12721;SDS011;6425;50.316;8.114;2022-10-26T10:24:30;11.93;;;7.20;;
12721;SDS011;6425;50.316;8.114;2022-10-26T10:29:32;10.00;;;5.50;;
12721;SDS011;6425;50.316;8.114;2022-10-26T10:34:40;9.43;;;4.63;;
12721;SDS011;6425;50.316;8.114;2022-10-26T10:45:59;7.53;;;3.67;;
12721;SDS011;6425;50.316;8.114;2022-10-26T10:57:34;8.50;;;3.63;;
12721;SDS011;6425;50.316;8.114;2022-10-26T11:09:11;7.80;;;3.40;;
12721;SDS011;6425;50.316;8.114;2022-10-26T11:20:54;9.57;;;3.10;;
12721;SDS011;6425;50.316;8.114;2022-10-26T11:37:22;8.23;;;2.70;;
12721;SDS011;6425;50.316;8.114;2022-10-26T11:42:30;7.20;;;2.30;;
12721;SDS011;6425;50.316;8.114;2022-10-26T11:47:41;7.50;;;2.57;;
12721;SDS011;6425;50.316;8.114;2022-10-26T11:52:50;7.50;;;2.27;;
12721;SDS011;6425;50.316;8.114;2022-10-26T11:57:55;5.67;;;2.60;;
12721;SDS011;6425;50.316;8.114;2022-10-26T12:03:00;8.33;;;2.60;;
12721;SDS011;6425;50.316;8.114;2022-10-26T12:08:10;6.47;;;1.93;;
12721;SDS011;6425;50.316;8.114;2022-10-26T12:13:18;11.77;;;5.50;;
12721;SDS011;6425;50.316;8.114;2022-10-26T12:18:25;7.23;;;1.13;;
12721;SDS011;6425;50.316;8.114;2022-10-26T12:23:34;7.60;;;2.83;;
12721;SDS011;6425;50.316;8.114;2022-10-26T12:28:40;4.70;;;1.30;;
12721;SDS011;6425;50.316;8.114;2022-10-26T12:33:48;2.23;;;0.63;;
12721;SDS011;6425;50.316;8.114;2022-10-26T12:44:10;2.80;;;1.30;;
12721;SDS011;6425;50.316;8.114;2022-10-26T13:00:42;4.30;;;1.33;;
12721;SDS011;6425;50.316;8.114;2022-10-26T13:11:16;2.87;;;1.10;;
12721;SDS011;6425;50.316;8.114;2022-10-26T13:16:19;2.07;;;1.17;;
12721;SDS011;6425;50.316;8.114;2022-10-26T13:21:21;4.13;;;1.20;;
12721;SDS011;6425;50.316;8.114;2022-10-26T13:26:25;0.90;;;0.90;;
12721;SDS011;6425;50.316;8.114;2022-10-26T13:36:58;3.57;;;1.33;;
12721;SDS011;6425;50.316;8.114;2022-10-26T13:42:05;4.30;;;0.80;;
12721;SDS011;6425;50.316;8.114;2022-10-26T13:47:13;2.23;;;1.27;;
12721;SDS011;6425;50.316;8.114;2022-10-26T13:52:22;4.50;;;1.57;;
12721;SDS011;6425;50.316;8.114;2022-10-26T13:57:31;3.80;;;1.53;;
12721;SDS011;6425;50.316;8.114;2022-10-26T14:02:35;2.00;;;1.13;;
12721;SDS011;6425;50.316;8.114;2022-10-26T14:07:41;2.50;;;1.10;;
12721;SDS011;6425;50.316;8.114;2022-10-26T14:12:45;2.53;;;1.13;;
12721;SDS011;6425;50.316;8.114;2022-10-26T14:17:48;3.67;;;1.13;;
12721;SDS011;6425;50.316;8.114;2022-10-26T14:22:49;3.97;;;0.90;;
12721;SDS011;6425;50.316;8.114;2022-10-26T14:27:52;1.73;;;0.80;;
12721;SDS011;6425;50.316;8.114;2022-10-26T14:32:53;6.63;;;1.40;;
12721;SDS011;6425;50.316;8.114;2022-10-26T14:37:54;2.27;;;1.10;;
12721;SDS011;6425;50.316;8.114;2022-10-26T14:42:58;3.13;;;0.70;;
12721;SDS011;6425;50.316;8.114;2022-10-26T14:48:00;4.70;;;0.80;;
12721;SDS011;6425;50.316;8.114;2022-10-26T14:53:03;2.63;;;0.77;;
12721;SDS011;6425;50.316;8.114;2022-10-26T14:58:14;4.63;;;1.13;;
12721;SDS011;6425;50.316;8.114;2022-10-26T15:03:19;1.67;;;0.90;;
12721;SDS011;6425;50.316;8.114;2022-10-26T15:13:44;3.03;;;0.73;;
12721;SDS011;6425;50.316;8.114;2022-10-26T15:18:46;3.53;;;1.13;;
12721;SDS011;6425;50.316;8.114;2022-10-26T15:23:48;5.80;;;0.90;;
12721;SDS011;6425;50.316;8.114;2022-10-26T15:28:51;2.87;;;0.73;;
12721;SDS011;6425;50.316;8.114;2022-10-26T15:34:06;2.10;;;0.50;;
12721;SDS011;6425;50.316;8.114;2022-10-26T15:39:13;3.50;;;0.63;;
12721;SDS011;6425;50.316;8.114;2022-10-26T15:44:15;1.20;;;0.70;;
12721;SDS011;6425;50.316;8.114;2022-10-26T15:49:19;3.90;;;0.60;;
12721;SDS011;6425;50.316;8.114;2022-10-26T15:54:20;3.13;;;0.60;;
12721;SDS011;6425;50.316;8.114;2022-10-26T15:59:22;2.83;;;1.00;;
12721;SDS011;6425;50.316;8.114;2022-10-26T16:04:22;2.93;;;0.57;;
12721;SDS011;6425;50.316;8.114;2022-10-26T16:09:23;3.70;;;0.60;;
12721;SDS011;6425;50.316;8.114;2022-10-26T16:14:25;4.40;;;0.70;;
12721;SDS011;6425;50.316;8.114;2022-10-26T16:19:25;5.03;;;0.80;;
12721;SDS011;6425;50.316;8.114;2022-10-26T16:24:26;4.07;;;1.87;;
12721;SDS011;6425;50.316;8.114;2022-10-26T16:29:28;6.20;;;1.43;;
12721;SDS011;6425;50.316;8.114;2022-10-26T16:34:29;3.83;;;0.80;;
12721;SDS011;6425;50.316;8.114;2022-10-26T16:39:29;4.33;;;0.70;;
12721;SDS011;6425;50.316;8.114;2022-10-26T16:44:31;3.27;;;0.60;;
12721;SDS011;6425;50.316;8.114;2022-10-26T16:49:32;2.97;;;0.40;;
12721;SDS011;6425;50.316;8.114;2022-10-26T16:54:32;1.57;;;0.70;;
12721;SDS011;6425;50.316;8.114;2022-10-26T17:04:50;3.20;;;0.60;;
12721;SDS011;6425;50.316;8.114;2022-10-26T17:09:51;4.83;;;0.53;;
12721;SDS011;6425;50.316;8.114;2022-10-26T17:14:51;2.93;;;0.60;;
12721;SDS011;6425;50.316;8.114;2022-10-26T17:19:53;2.60;;;0.77;;
12721;SDS011;6425;50.316;8.114;2022-10-26T17:24:53;1.87;;;0.53;;
12721;SDS011;6425;50.316;8.114;2022-10-26T17:29:54;5.03;;;0.80;;
12721;SDS011;6425;50.316;8.114;2022-10-26T17:34:56;1.37;;;0.60;;
12721;SDS011;6425;50.316;8.114;2022-10-26T17:39:56;1.57;;;0.40;;
12721;SDS011;6425;50.316;8.114;2022-10-26T17:44:58;3.43;;;0.60;;
12721;SDS011;6425;50.316;8.114;2022-10-26T17:50:00;1.77;;;0.60;;
12721;SDS011;6425;50.316;8.114;2022-10-26T17:55:01;1.63;;;0.50;;
12721;SDS011;6425;50.316;8.114;2022-10-26T18:00:02;6.37;;;0.80;;
12721;SDS011;6425;50.316;8.114;2022-10-26T18:05:13;4.27;;;0.60;;
12721;SDS011;6425;50.316;8.114;2022-10-26T18:10:14;4.50;;;0.60;;
12721;SDS011;6425;50.316;8.114;2022-10-26T18:15:15;1.60;;;0.60;;
12721;SDS011;6425;50.316;8.114;2022-10-26T18:20:17;7.07;;;0.90;;
12721;SDS011;6425;50.316;8.114;2022-10-26T18:25:17;5.47;;;0.90;;
12721;SDS011;6425;50.316;8.114;2022-10-26T18:30:18;4.37;;;0.60;;
12721;SDS011;6425;50.316;8.114;2022-10-26T18:35:20;2.47;;;0.80;;
12721;SDS011;6425;50.316;8.114;2022-10-26T18:40:20;3.30;;;0.60;;
12721;SDS011;6425;50.316;8.114;2022-10-26T18:45:21;6.63;;;2.57;;
12721;SDS011;6425;50.316;8.114;2022-10-26T18:50:23;16.17;;;7.63;;
12721;SDS011;6425;50.316;8.114;2022-10-26T18:55:23;9.10;;;4.17;;
12721;SDS011;6425;50.316;8.114;2022-10-26T19:00:24;10.10;;;4.73;;
12721;SDS011;6425;50.316;8.114;2022-10-26T19:05:28;7.13;;;1.90;;
12721;SDS011;6425;50.316;8.114;2022-10-26T19:10:29;8.97;;;1.50;;
12721;SDS011;6425;50.316;8.114;2022-10-26T19:15:30;7.23;;;3.30;;
12721;SDS011;6425;50.316;8.114;2022-10-26T19:20:32;14.90;;;6.83;;
12721;SDS011;6425;50.316;8.114;2022-10-26T19:25:33;9.40;;;3.73;;
12721;SDS011;6425;50.316;8.114;2022-10-26T19:30:36;7.20;;;3.50;;
12721;SDS011;6425;50.316;8.114;2022-10-26T19:35:39;4.43;;;0.97;;
12721;SDS011;6425;50.316;8.114;2022-10-26T19:40:39;4.53;;;1.00;;
12721;SDS011;6425;50.316;8.114;2022-10-26T19:45:40;5.07;;;2.10;;
12721;SDS011;6425;50.316;8.114;2022-10-26T19:50:47;2.40;;;1.10;;
12721;SDS011;6425;50.316;8.114;2022-10-26T19:55:48;7.40;;;1.00;;
12721;SDS011;6425;50.316;8.114;2022-10-26T20:00:53;6.37;;;3.47;;
12721;SDS011;6425;50.316;8.114;2022-10-26T20:05:57;4.30;;;0.87;;
12721;SDS011;6425;50.316;8.114;2022-10-26T20:10:58;2.30;;;0.90;;
12721;SDS011;6425;50.316;8.114;2022-10-26T20:15:59;2.77;;;0.83;;
12721;SDS011;6425;50.316;8.114;2022-10-26T20:21:01;2.23;;;0.50;;
12721;SDS011;6425;50.316;8.114;2022-10-26T20:26:06;2.10;;;0.67;;
12721;SDS011;6425;50.316;8.114;2022-10-26T20:31:06;3.37;;;0.60;;
12721;SDS011;6425;50.316;8.114;2022-10-26T20:36:08;3.40;;;1.17;;
12721;SDS011;6425;50.316;8.114;2022-10-26T20:41:09;2.03;;;0.87;;
12721;SDS011;6425;50.316;8.114;2022-10-26T20:46:11;2.03;;;0.60;;
12721;SDS011;6425;50.316;8.114;2022-10-26T20:51:24;1.60;;;0.50;;
12721;SDS011;6425;50.316;8.114;2022-10-26T20:56:38;7.10;;;0.70;;
12721;SDS011;6425;50.316;8.114;2022-10-26T21:01:41;2.60;;;0.60;;
12721;SDS011;6425;50.316;8.114;2022-10-26T21:06:43;4.67;;;1.30;;
12721;SDS011;6425;50.316;8.114;2022-10-26T21:11:43;2.63;;;1.30;;
12721;SDS011;6425;50.316;8.114;2022-10-26T21:16:44;4.70;;;0.70;;
12721;SDS011;6425;50.316;8.114;2022-10-26T21:21:46;2.07;;;0.50;;
12721;SDS011;6425;50.316;8.114;2022-10-26T21:26:47;3.60;;;0.67;;
12721;SDS011;6425;50.316;8.114;2022-10-26T21:31:48;1.07;;;0.60;;
12721;SDS011;6425;50.316;8.114;2022-10-26T21:36:50;5.17;;;1.10;;
12721;SDS011;6425;50.316;8.114;2022-10-26T21:41:51;6.47;;;0.80;;
12721;SDS011;6425;50.316;8.114;2022-10-26T21:46:52;3.63;;;0.90;;
12721;SDS011;6425;50.316;8.114;2022-10-26T21:51:54;1.77;;;0.60;;
12721;SDS011;6425;50.316;8.114;2022-10-26T21:56:54;3.80;;;0.60;;
12721;SDS011;6425;50.316;8.114;2022-10-26T22:01:55;1.97;;;0.60;;
12721;SDS011;6425;50.316;8.114;2022-10-26T22:06:57;5.50;;;1.00;;
12721;SDS011;6425;50.316;8.114;2022-10-26T22:11:58;1.87;;;0.80;;
12721;SDS011;6425;50.316;8.114;2022-10-26T22:16:59;1.60;;;0.87;;
12721;SDS011;6425;50.316;8.114;2022-10-26T22:22:01;2.17;;;0.60;;
12721;SDS011;6425;50.316;8.114;2022-10-26T22:27:02;9.03;;;2.00;;
12721;SDS011;6425;50.316;8.114;2022-10-26T22:32:02;2.50;;;0.57;;
12721;SDS011;6425;50.316;8.114;2022-10-26T22:37:06;4.00;;;0.90;;
12721;SDS011;6425;50.316;8.114;2022-10-26T22:42:07;4.60;;;0.90;;
12721;SDS011;6425;50.316;8.114;2022-10-26T22:47:07;2.77;;;1.20;;
12721;SDS011;6425;50.316;8.114;2022-10-26T22:52:12;9.00;;;5.67;;
12721;SDS011;6425;50.316;8.114;2022-10-26T22:57:13;4.47;;;1.70;;
12721;SDS011;6425;50.316;8.114;2022-10-26T23:02:14;6.20;;;1.00;;
12721;SDS011;6425;50.316;8.114;2022-10-26T23:07:16;7.23;;;1.80;;
12721;SDS011;6425;50.316;8.114;2022-10-26T23:12:20;6.73;;;2.60;;
12721;SDS011;6425;50.316;8.114;2022-10-26T23:17:21;9.13;;;2.83;;
12721;SDS011;6425;50.316;8.114;2022-10-26T23:22:23;2.67;;;2.00;;
12721;SDS011;6425;50.316;8.114;2022-10-26T23:27:24;7.83;;;2.87;;
12721;SDS011;6425;50.316;8.114;2022-10-26T23:32:24;6.63;;;2.73;;
12721;SDS011;6425;50.316;8.114;2022-10-26T23:37:29;8.03;;;2.20;;
12721;SDS011;6425;50.316;8.114;2022-10-26T23:42:35;6.57;;;1.80;;
12721;SDS011;6425;50.316;8.114;2022-10-26T23:47:36;3.97;;;1.90;;
12721;SDS011;6425;50.316;8.114;2022-10-26T23:52:40;4.83;;;2.90;;
12721;SDS011;6425;50.316;8.114;2022-10-26T23:57:42;8.30;;;2.50;;
